Time;durP1;ratioP1;P1;durP2;ratioP2;P2;SDS_P1;SDS_P2;PMS_P1;PMS_P2;Temp;Humidity;BMP_temperature;BMP_pressure;BME280_temperature;BME280_humidity;BME280_pressure;Samples;Min_cycle;Max_cycle;Signal;HPM_P1;HPM_P2
2022/11/10 00:01:55;;;;;;;8.40;8.00;;;14.40;50.60;;;;;;4966701;28;20249;-59
2022/11/10 00:04:21;;;;;;;8.73;8.40;;;14.40;49.80;;;;;;4967493;28;20210;-59
2022/11/10 00:06:47;;;;;;;7.90;7.50;;;14.20;50.40;;;;;;4965823;28;20281;-60
2022/11/10 00:09:13;;;;;;;7.93;7.63;;;14.10;51.50;;;;;;4966701;28;20193;-60
2022/11/10 00:11:39;;;;;;;9.20;8.60;;;14.00;51.50;;;;;;4964882;28;20265;-59
2022/11/10 00:17:01;;;;;;;8.63;8.30;;;14.10;52.50;;;;;;4967493;28;20245;-58
2022/11/10 00:19:31;;;;;;;7.83;7.53;;;14.10;52.20;;;;;;4964279;28;20418;-58
2022/11/10 00:21:57;;;;;;;7.87;7.47;;;14.10;51.50;;;;;;4965067;28;20557;-59
2022/11/10 00:24:23;;;;;;;8.17;7.77;;;14.10;51.60;;;;;;4965035;28;20449;-59
2022/11/10 00:26:49;;;;;;;8.83;8.30;;;14.00;52.10;;;;;;4964565;28;20430;-59
2022/11/10 00:29:15;;;;;;;8.17;7.87;;;13.90;52.20;;;;;;4966877;28;20420;-59
2022/11/10 00:31:41;;;;;;;7.53;7.20;;;13.90;52.50;;;;;;4962847;28;20473;-59
2022/11/10 00:34:11;;;;;;;7.73;7.43;;;14.00;52.60;;;;;;4968320;28;20179;-59
2022/11/10 00:36:37;;;;;;;7.57;7.27;;;14.10;52.30;;;;;;4964754;28;20480;-59
2022/11/10 00:39:02;;;;;;;7.23;6.93;;;14.20;51.80;;;;;;4970551;28;20422;-59
2022/11/10 00:41:28;;;;;;;8.17;7.70;;;14.20;51.70;;;;;;4969664;28;20657;-59
2022/11/10 00:43:54;;;;;;;8.03;7.73;;;14.30;51.20;;;;;;4971840;28;20441;-59
2022/11/10 00:46:20;;;;;;;6.97;6.77;;;14.30;50.30;;;;;;4970566;28;20451;-59
2022/11/10 00:48:45;;;;;;;8.07;7.47;;;14.10;49.80;;;;;;4970880;28;20246;-57
2022/11/10 00:51:23;;;;;;;7.47;7.17;;;14.00;50.50;;;;;;4969521;28;20244;-54
2022/11/10 00:53:49;;;;;;;8.17;7.87;;;14.10;50.90;;;;;;4968602;28;20273;-56
2022/11/10 00:56:15;;;;;;;8.40;8.00;;;14.10;50.50;;;;;;4967787;28;20425;-55
2022/11/10 00:58:41;;;;;;;8.67;8.27;;;14.20;49.30;;;;;;4969230;28;20429;-56
2022/11/10 01:01:07;;;;;;;8.43;8.07;;;14.20;49.00;;;;;;4969500;28;20662;-56
2022/11/10 01:03:33;;;;;;;8.60;8.30;;;14.20;48.50;;;;;;4967367;28;20434;-55
2022/11/10 01:06:07;;;;;;;8.60;8.03;;;14.30;47.90;;;;;;4966281;28;20435;-54
2022/11/10 01:08:33;;;;;;;8.33;7.80;;;14.20;47.00;;;;;;4967255;28;20422;-55
2022/11/10 01:11:06;;;;;;;7.73;7.43;;;14.20;47.10;;;;;;4967062;28;20492;-55
2022/11/10 01:13:33;;;;;;;8.80;8.40;;;14.20;47.10;;;;;;4969017;28;20934;-55
2022/11/10 01:16:06;;;;;;;9.83;9.03;;;14.20;46.70;;;;;;4966802;28;20972;-59
2022/11/10 01:18:33;;;;;;;8.80;8.40;;;14.10;46.90;;;;;;4967236;28;20544;-59
2022/11/10 01:20:58;;;;;;;9.30;9.00;;;14.20;46.70;;;;;;4967375;28;20430;-59
2022/11/10 01:23:24;;;;;;;8.60;8.20;;;14.10;46.40;;;;;;4967528;28;20565;-59
2022/11/10 01:25:50;;;;;;;9.80;9.20;;;14.00;46.80;;;;;;4968144;28;20652;-59
2022/11/10 01:28:15;;;;;;;8.63;8.20;;;14.00;47.50;;;;;;4969350;28;20249;-60
2022/11/10 01:30:41;;;;;;;8.50;8.20;;;14.00;47.40;;;;;;4967884;28;20729;-59
2022/11/10 01:33:07;;;;;;;8.27;7.87;;;14.10;47.00;;;;;;4968310;28;20185;-59
2022/11/10 01:35:33;;;;;;;9.17;8.70;;;14.10;46.90;;;;;;4964698;28;20202;-54
2022/11/10 01:37:59;;;;;;;9.50;7.90;;;14.10;46.70;;;;;;4965881;28;20651;-55
2022/11/10 01:40:25;;;;;;;8.43;8.17;;;14.10;46.90;;;;;;4969366;28;20472;-53
2022/11/10 01:42:56;;;;;;;9.47;8.60;;;14.10;46.70;;;;;;4963701;28;20206;-54
2022/11/10 01:45:22;;;;;;;8.97;8.43;;;14.10;47.10;;;;;;4963642;28;20989;-54
2022/11/10 01:48:01;;;;;;;9.33;8.77;;;14.00;47.40;;;;;;4965666;28;20670;-59
2022/11/10 01:50:32;;;;;;;8.70;8.10;;;13.90;48.40;;;;;;4963868;28;20576;-58
2022/11/10 01:53:02;;;;;;;9.97;9.47;;;13.60;49.10;;;;;;4963533;28;20410;-58
2022/11/10 01:55:28;;;;;;;9.60;9.20;;;13.50;49.30;;;;;;4964086;28;20410;-59
2022/11/10 01:57:54;;;;;;;10.13;9.33;;;13.40;50.20;;;;;;4963862;28;20418;-59
2022/11/10 02:00:21;;;;;;;9.77;9.17;;;13.30;50.40;;;;;;4963436;28;20485;-58
2022/11/10 02:02:56;;;;;;;9.30;8.70;;;13.20;50.80;;;;;;4962416;28;20528;-59
2022/11/10 02:05:23;;;;;;;10.43;9.93;;;13.20;50.60;;;;;;4963798;28;20425;-58
2022/11/10 02:07:50;;;;;;;9.93;9.53;;;13.10;51.40;;;;;;4965132;28;20459;-59
2022/11/10 02:10:18;;;;;;;10.07;9.53;;;13.00;52.50;;;;;;4962962;28;20934;-58
2022/11/10 02:12:44;;;;;;;10.50;9.90;;;13.10;52.10;;;;;;4964143;28;20418;-55
2022/11/10 02:15:13;;;;;;;9.70;9.30;;;13.10;51.60;;;;;;4963730;28;20820;-54
2022/11/10 02:17:39;;;;;;;9.40;9.00;;;13.10;50.80;;;;;;4965015;28;20791;-54
2022/11/10 02:20:08;;;;;;;10.03;9.40;;;13.10;51.20;;;;;;4963114;28;20828;-54
2022/11/10 02:22:34;;;;;;;10.63;10.03;;;13.20;50.50;;;;;;4963404;28;20429;-55
2022/11/10 02:25:01;;;;;;;10.43;9.73;;;13.30;48.40;;;;;;4962901;28;20534;-55
2022/11/10 02:27:26;;;;;;;10.50;9.90;;;13.30;49.10;;;;;;4964566;28;20453;-55
2022/11/10 02:29:52;;;;;;;9.93;9.37;;;13.40;49.00;;;;;;4962107;28;20450;-56
2022/11/10 02:32:18;;;;;;;10.70;10.00;;;13.50;48.50;;;;;;4963074;28;20742;-55
2022/11/10 02:34:43;;;;;;;10.63;10.00;;;13.50;47.60;;;;;;4961248;28;20426;-53
2022/11/10 02:37:09;;;;;;;9.30;8.80;;;13.60;47.50;;;;;;4963243;28;20181;-54
2022/11/10 02:39:36;;;;;;;10.57;9.97;;;13.60;47.10;;;;;;4964328;28;20179;-55
2022/11/10 02:42:02;;;;;;;10.33;9.87;;;13.70;46.40;;;;;;4964029;28;20734;-56
2022/11/10 02:44:28;;;;;;;11.23;10.37;;;13.60;46.50;;;;;;4964856;28;21242;-54
2022/11/10 02:46:54;;;;;;;10.27;9.50;;;13.40;47.00;;;;;;4965391;28;20453;-58
2022/11/10 02:49:19;;;;;;;10.20;9.40;;;13.20;47.40;;;;;;4963682;28;20189;-58
2022/11/10 02:51:45;;;;;;;9.60;9.10;;;13.00;47.80;;;;;;4964874;28;20265;-59
2022/11/10 02:54:11;;;;;;;9.30;8.80;;;13.20;48.00;;;;;;4964443;28;20186;-59
2022/11/10 02:56:36;;;;;;;10.67;9.80;;;13.20;47.70;;;;;;4963172;28;20179;-59
2022/11/10 02:59:03;;;;;;;9.33;8.73;;;13.30;47.20;;;;;;4963203;28;20182;-59
2022/11/10 03:01:29;;;;;;;9.93;9.13;;;13.20;47.20;;;;;;4963194;28;20210;-58
2022/11/10 03:03:55;;;;;;;9.40;8.90;;;13.10;48.00;;;;;;4962205;28;20457;-60
2022/11/10 03:06:20;;;;;;;9.20;8.63;;;13.10;47.90;;;;;;4963142;28;20183;-58
2022/11/10 03:08:47;;;;;;;10.80;9.77;;;13.00;48.70;;;;;;4962583;28;20186;-58
2022/11/10 03:11:13;;;;;;;10.27;9.57;;;13.10;48.70;;;;;;4963184;28;20221;-58
2022/11/10 03:13:39;;;;;;;10.00;9.40;;;13.00;48.00;;;;;;4947130;28;20410;-60
2022/11/10 03:16:04;;;;;;;9.80;9.00;;;13.00;48.50;;;;;;4963355;28;20547;-59
2022/11/10 03:18:30;;;;;;;10.00;9.30;;;12.90;48.60;;;;;;4968726;28;20185;-58
2022/11/10 03:20:56;;;;;;;10.07;9.47;;;12.80;49.30;;;;;;4965754;28;20190;-58
2022/11/10 03:23:21;;;;;;;9.80;9.30;;;12.60;49.90;;;;;;4962327;28;20657;-59
2022/11/10 03:25:47;;;;;;;10.30;9.70;;;12.50;50.70;;;;;;4962274;28;20299;-59
2022/11/10 03:28:13;;;;;;;9.70;9.20;;;12.40;51.40;;;;;;4961587;28;20182;-59
2022/11/10 03:30:39;;;;;;;10.43;9.63;;;12.50;51.50;;;;;;4962469;28;20297;-59
2022/11/10 03:33:05;;;;;;;10.13;9.37;;;12.30;51.80;;;;;;4963769;28;20914;-59
2022/11/10 03:35:30;;;;;;;9.80;9.10;;;12.30;52.10;;;;;;4962641;28;20412;-59
2022/11/10 03:37:56;;;;;;;10.60;9.90;;;12.30;51.90;;;;;;4962861;28;20410;-58
2022/11/10 03:40:22;;;;;;;9.87;9.17;;;12.30;52.10;;;;;;4964799;28;20175;-59
2022/11/10 03:42:47;;;;;;;10.10;9.23;;;12.30;52.20;;;;;;4962161;28;20197;-59
2022/11/10 03:45:14;;;;;;;10.50;9.70;;;12.30;51.70;;;;;;4962184;28;20197;-60
2022/11/10 03:47:43;;;;;;;9.53;8.93;;;12.40;51.80;;;;;;4962836;28;20632;-59
2022/11/10 03:50:09;;;;;;;10.13;9.43;;;12.40;51.60;;;;;;4962386;28;20441;-60
2022/11/10 03:52:39;;;;;;;9.93;9.37;;;12.30;51.90;;;;;;4961714;28;20963;-55
2022/11/10 03:55:05;;;;;;;10.33;9.30;;;12.40;52.50;;;;;;4959845;28;20671;-55
2022/11/10 03:57:31;;;;;;;9.70;9.20;;;12.60;52.20;;;;;;4961298;28;20429;-55
2022/11/10 03:59:56;;;;;;;9.73;9.23;;;12.70;51.30;;;;;;4962370;28;20414;-59
2022/11/10 04:02:22;;;;;;;10.50;9.90;;;12.60;49.90;;;;;;4960317;28;20205;-59
2022/11/10 04:10:16;;;;;;;11.43;10.63;;;12.50;50.80;;;;;;4964596;28;20408;-59
2022/11/10 04:15:41;;;;;;;11.83;10.87;;;12.30;51.70;;;;;;4965089;28;20173;-59
2022/11/10 04:18:20;;;;;;;10.73;10.20;;;12.20;52.20;;;;;;4962707;28;20600;-59
2022/11/10 04:20:50;;;;;;;10.47;9.93;;;12.10;52.60;;;;;;4962664;28;20783;-59
2022/11/10 04:23:29;;;;;;;10.30;9.90;;;12.10;53.10;;;;;;4967945;28;20406;-59
2022/11/10 04:28:52;;;;;;;10.10;9.33;;;11.90;54.50;;;;;;4967699;28;20440;-55
2022/11/10 04:31:19;;;;;;;11.67;10.70;;;12.00;53.20;;;;;;4966673;28;20464;-55
2022/11/10 04:33:46;;;;;;;10.60;9.83;;;11.80;53.00;;;;;;4967895;28;20521;-56
2022/11/10 04:36:16;;;;;;;9.70;9.10;;;11.90;53.10;;;;;;4965478;28;20460;-54
2022/11/10 04:38:42;;;;;;;10.60;9.70;;;11.90;53.10;;;;;;4968227;28;20789;-55
2022/11/10 04:41:09;;;;;;;11.00;10.10;;;12.00;53.10;;;;;;4969572;28;20421;-55
2022/11/10 04:43:35;;;;;;;11.03;10.03;;;11.90;53.10;;;;;;4968298;28;20194;-54
2022/11/10 04:46:01;;;;;;;10.00;9.40;;;11.90;53.10;;;;;;4967862;28;20422;-55
2022/11/10 04:48:28;;;;;;;10.73;10.03;;;12.00;52.70;;;;;;4969621;28;20561;-59
2022/11/10 04:50:54;;;;;;;10.93;10.00;;;12.20;52.20;;;;;;4968699;28;20859;-59
2022/11/10 04:53:20;;;;;;;11.50;10.70;;;12.30;51.20;;;;;;4968142;28;20429;-56
2022/11/10 04:55:46;;;;;;;11.97;11.03;;;12.40;49.40;;;;;;4970104;28;20177;-55
2022/11/10 04:58:12;;;;;;;10.57;10.07;;;12.20;49.90;;;;;;4969423;28;20442;-55
2022/11/10 05:00:39;;;;;;;10.80;10.13;;;12.20;49.70;;;;;;4969808;28;20919;-55
2022/11/10 05:03:07;;;;;;;13.13;10.30;;;12.10;49.60;;;;;;4972250;28;20970;-56
2022/11/10 05:05:33;;;;;;;10.23;9.67;;;12.00;49.60;;;;;;4969394;28;20418;-56
2022/11/10 05:07:59;;;;;;;9.93;9.43;;;11.90;49.80;;;;;;4970708;28;20990;-55
2022/11/10 05:10:25;;;;;;;10.53;9.80;;;12.00;50.70;;;;;;4970768;28;20898;-56
2022/11/10 05:12:55;;;;;;;10.97;10.30;;;12.10;50.50;;;;;;4970290;28;20409;-57
2022/11/10 05:15:21;;;;;;;10.80;10.10;;;12.30;49.20;;;;;;4970967;28;20422;-56
2022/11/10 05:17:52;;;;;;;11.67;10.80;;;12.50;48.00;;;;;;4969949;28;20445;-55
2022/11/10 05:20:19;;;;;;;11.47;10.70;;;12.60;47.10;;;;;;4968671;28;20441;-57
2022/11/10 05:23:36;;;;;;;10.10;9.60;;;12.80;46.50;;;;;;4988779;28;20456;-59
2022/11/10 05:25:32;;;;;;;11.13;10.60;;;12.80;45.90;;;;;;4993711;28;20874;-60
2022/11/10 05:27:58;;;;;;;10.93;10.23;;;12.60;46.50;;;;;;4994134;28;20501;-60
2022/11/10 05:30:23;;;;;;;10.97;10.37;;;12.30;47.50;;;;;;4990340;28;20431;-59
2022/11/10 05:32:49;;;;;;;10.97;10.27;;;12.10;48.60;;;;;;4993900;28;20212;-60
2022/11/10 05:35:15;;;;;;;11.17;10.27;;;12.00;49.70;;;;;;4994144;28;20627;-60
2022/11/10 05:37:40;;;;;;;10.50;9.70;;;11.80;50.30;;;;;;4991904;28;20173;-59
2022/11/10 05:40:07;;;;;;;10.53;10.00;;;11.80;50.70;;;;;;4993480;28;20197;-59
2022/11/10 05:42:32;;;;;;;10.60;10.10;;;11.60;51.30;;;;;;4988074;28;20182;-59
2022/11/10 05:44:58;;;;;;;12.17;11.27;;;11.50;51.80;;;;;;4973631;28;20424;-59
2022/11/10 05:47:24;;;;;;;10.83;10.13;;;11.40;52.60;;;;;;4973833;28;20220;-58
2022/11/10 05:49:49;;;;;;;10.87;10.33;;;11.40;52.60;;;;;;4973749;28;20179;-56
2022/11/10 05:52:15;;;;;;;10.70;10.10;;;11.30;52.50;;;;;;4972586;28;20202;-53
2022/11/10 05:54:40;;;;;;;10.50;9.90;;;11.30;52.50;;;;;;4970322;28;20175;-56
2022/11/10 05:57:06;;;;;;;11.90;11.10;;;11.30;52.60;;;;;;4970649;28;20186;-56
2022/11/10 05:59:32;;;;;;;11.00;10.40;;;11.40;52.60;;;;;;4971678;28;20179;-56
2022/11/10 06:01:57;;;;;;;11.70;10.97;;;11.40;52.60;;;;;;4973785;28;20187;-55
2022/11/10 06:04:23;;;;;;;11.13;10.43;;;11.40;52.20;;;;;;4971801;28;20201;-56
2022/11/10 06:06:49;;;;;;;10.93;10.33;;;11.30;51.90;;;;;;4973416;28;20218;-56
2022/11/10 06:09:14;;;;;;;10.73;10.20;;;11.30;51.90;;;;;;4972489;28;20175;-56
2022/11/10 06:11:40;;;;;;;11.47;10.60;;;11.30;51.70;;;;;;4971663;28;20640;-56
2022/11/10 06:14:05;;;;;;;11.27;10.67;;;11.40;50.50;;;;;;4956673;28;20174;-54
2022/11/10 06:16:31;;;;;;;11.80;10.93;;;11.60;50.30;;;;;;4974062;28;20178;-54
2022/11/10 06:18:57;;;;;;;11.03;10.43;;;11.70;50.00;;;;;;4972933;28;20205;-51
2022/11/10 06:21:22;;;;;;;10.60;10.07;;;11.70;49.00;;;;;;4974628;28;20211;-52
2022/11/10 06:23:48;;;;;;;11.50;10.73;;;11.70;48.70;;;;;;4992475;28;20553;-52
2022/11/10 06:26:13;;;;;;;11.30;10.60;;;11.60;49.10;;;;;;4973452;28;20187;-53
2022/11/10 06:28:39;;;;;;;11.70;10.80;;;11.60;49.10;;;;;;4970732;28;20190;-53
2022/11/10 06:31:05;;;;;;;12.53;11.83;;;11.50;49.20;;;;;;4966582;28;20209;-58
2022/11/10 06:33:31;;;;;;;14.40;13.20;;;11.50;49.50;;;;;;4973583;28;20560;-58
2022/11/10 06:35:56;;;;;;;11.57;10.87;;;11.40;49.40;;;;;;4956175;28;20776;-57
2022/11/10 06:38:22;;;;;;;13.50;12.60;;;11.60;50.10;;;;;;4963368;28;20418;-56
2022/11/10 06:40:47;;;;;;;12.53;11.23;;;11.80;49.30;;;;;;4969112;28;20698;-57
2022/11/10 06:43:13;;;;;;;12.10;11.30;;;12.00;48.30;;;;;;4976247;28;20201;-53
2022/11/10 06:45:39;;;;;;;12.83;11.93;;;12.20;47.60;;;;;;4992108;28;20674;-57
2022/11/10 06:48:12;;;;;;;13.83;12.67;;;12.10;46.00;;;;;;4991977;28;20212;-58
2022/11/10 06:50:38;;;;;;;14.50;12.30;;;12.00;47.10;;;;;;4991777;28;20646;-54
2022/11/10 06:53:04;;;;;;;13.07;12.03;;;12.00;48.00;;;;;;4977970;28;20434;-53
2022/11/10 06:55:30;;;;;;;12.07;11.53;;;12.20;47.50;;;;;;4953766;29;20187;-54
2022/11/10 06:57:56;;;;;;;12.30;11.40;;;12.10;47.00;;;;;;4953987;29;20419;-54
2022/11/10 07:00:23;;;;;;;12.57;11.67;;;11.80;48.20;;;;;;4953843;28;20926;-53
2022/11/10 07:03:01;;;;;;;12.07;11.47;;;11.60;49.20;;;;;;4972492;28;20422;-51
2022/11/10 07:05:27;;;;;;;13.33;12.23;;;11.50;49.40;;;;;;4977067;28;20427;-53
2022/11/10 07:07:52;;;;;;;11.33;10.73;;;11.50;49.50;;;;;;4990665;28;20414;-49
2022/11/10 07:10:18;;;;;;;10.80;10.30;;;11.40;50.00;;;;;;4950648;29;20751;-53
2022/11/10 07:12:43;;;;;;;11.30;10.80;;;11.40;50.10;;;;;;4964897;28;20203;-53
2022/11/10 07:15:09;;;;;;;12.03;11.43;;;11.40;50.40;;;;;;4972785;28;20242;-52
2022/11/10 07:17:41;;;;;;;12.07;11.47;;;11.40;50.90;;;;;;4971727;28;20178;-54
2022/11/10 07:20:07;;;;;;;11.53;10.90;;;11.40;51.10;;;;;;4982491;28;20694;-54
2022/11/10 07:22:34;;;;;;;11.50;10.70;;;11.40;50.70;;;;;;4991411;28;20432;-52
2022/11/10 07:25:00;;;;;;;11.17;10.37;;;11.40;50.40;;;;;;4992274;28;20837;-54
2022/11/10 07:27:25;;;;;;;11.40;10.87;;;11.40;51.00;;;;;;4974073;28;20504;-53
2022/11/10 07:29:51;;;;;;;11.63;11.00;;;11.40;51.40;;;;;;4972458;28;20250;-53
2022/11/10 07:32:16;;;;;;;11.07;10.17;;;11.50;51.10;;;;;;4970702;28;20276;-52
2022/11/10 07:34:42;;;;;;;22.30;20.60;;;11.50;50.60;;;;;;4971642;28;20655;-52
2022/11/10 07:37:08;;;;;;;11.87;11.27;;;11.60;50.40;;;;;;4973728;28;20205;-53
2022/11/10 07:39:33;;;;;;;13.00;11.87;;;11.70;50.20;;;;;;4972283;28;20183;-54
2022/11/10 07:41:59;;;;;;;10.80;10.30;;;11.90;50.30;;;;;;4971371;28;20579;-54
2022/11/10 07:44:27;;;;;;;12.50;11.70;;;12.00;48.50;;;;;;4971934;28;20194;-53
2022/11/10 07:46:53;;;;;;;12.27;11.37;;;12.00;48.70;;;;;;4971287;28;20269;-54
2022/11/10 07:49:19;;;;;;;11.37;10.70;;;12.10;48.90;;;;;;4971712;28;20513;-54
2022/11/10 07:51:44;;;;;;;11.80;11.20;;;12.20;47.90;;;;;;4972572;28;20228;-52
2022/11/10 07:54:10;;;;;;;11.37;10.80;;;12.20;46.80;;;;;;4972516;28;20426;-58
2022/11/10 07:56:36;;;;;;;11.30;10.80;;;12.00;46.80;;;;;;4971838;28;20175;-58
2022/11/10 07:59:02;;;;;;;11.77;11.13;;;11.90;47.20;;;;;;4971646;28;20421;-57
2022/11/10 08:01:27;;;;;;;11.40;10.80;;;11.90;48.10;;;;;;4971057;28;20580;-57
2022/11/10 08:03:53;;;;;;;11.67;11.03;;;12.10;48.40;;;;;;4968787;28;20178;-58
2022/11/10 08:06:18;;;;;;;12.43;11.47;;;12.30;47.80;;;;;;4969406;28;20519;-58
2022/11/10 08:08:47;;;;;;;11.43;10.73;;;12.40;47.00;;;;;;4972268;28;20185;-58
2022/11/10 08:11:13;;;;;;;11.57;10.97;;;12.60;46.50;;;;;;4969331;28;20214;-58
2022/11/10 08:13:38;;;;;;;11.20;10.67;;;12.70;46.00;;;;;;4969474;28;20781;-58
2022/11/10 08:16:04;;;;;;;10.70;10.20;;;12.90;45.80;;;;;;4967372;28;20266;-58
2022/11/10 08:18:30;;;;;;;11.57;10.87;;;13.00;45.50;;;;;;4968500;28;20178;-58
2022/11/10 08:20:58;;;;;;;11.73;11.07;;;13.10;44.30;;;;;;4970670;28;20759;-58
2022/11/10 08:23:24;;;;;;;13.07;12.17;;;13.10;44.30;;;;;;4969756;28;20182;-58
2022/11/10 08:25:52;;;;;;;11.53;11.03;;;13.10;44.40;;;;;;4970638;28;20765;-58
2022/11/10 08:28:18;;;;;;;13.33;12.63;;;13.20;44.40;;;;;;4968342;28;20206;-58
2022/11/10 08:30:45;;;;;;;11.70;11.00;;;13.20;44.40;;;;;;4967441;28;21107;-57
2022/11/10 08:33:14;;;;;;;11.87;11.20;;;13.30;44.50;;;;;;4970191;28;20410;-59
2022/11/10 08:35:42;;;;;;;12.40;11.53;;;13.30;44.50;;;;;;4969391;28;20406;-58
2022/11/10 08:38:31;;;;;;;11.43;10.63;;;13.30;44.10;;;;;;4968736;28;20417;-58
2022/11/10 08:40:56;;;;;;;10.80;10.40;;;13.40;44.60;;;;;;4969560;28;20445;-58
2022/11/10 08:43:22;;;;;;;10.73;10.07;;;13.30;40.50;;;;;;4968769;28;20508;-58
2022/11/10 08:45:48;;;;;;;11.07;10.50;;;13.20;40.40;;;;;;4968879;28;20273;-58
2022/11/10 08:48:16;;;;;;;11.40;10.77;;;13.30;42.10;;;;;;4969228;28;20418;-58
2022/11/10 08:50:42;;;;;;;10.07;9.77;;;13.30;39.00;;;;;;4968828;28;20271;-58
2022/11/10 08:53:20;;;;;;;10.53;9.93;;;13.30;40.40;;;;;;4970976;28;20473;-58
2022/11/10 08:55:46;;;;;;;11.17;10.60;;;13.50;41.70;;;;;;4968591;28;20440;-58
2022/11/10 08:58:22;;;;;;;10.70;10.20;;;13.70;41.20;;;;;;4969883;28;20455;-58
2022/11/10 09:00:49;;;;;;;11.63;10.83;;;14.00;39.90;;;;;;4972061;28;20429;-58
2022/11/10 09:03:23;;;;;;;11.87;11.03;;;14.00;35.00;;;;;;4972140;28;20508;-57
2022/11/10 09:05:50;;;;;;;11.60;10.83;;;14.00;36.90;;;;;;4973360;28;20429;-58
2022/11/10 09:08:16;;;;;;;10.50;10.10;;;14.20;37.50;;;;;;4973137;28;20424;-58
2022/11/10 09:10:44;;;;;;;10.63;10.13;;;14.20;36.40;;;;;;4968875;28;20429;-58
2022/11/10 09:13:10;;;;;;;11.00;10.30;;;14.20;34.50;;;;;;4971561;28;20907;-58
2022/11/10 09:15:37;;;;;;;10.60;10.10;;;14.10;33.40;;;;;;4970905;28;20420;-58
2022/11/10 09:18:05;;;;;;;10.00;9.60;;;13.80;34.80;;;;;;4969006;28;20426;-58
2022/11/10 09:20:32;;;;;;;12.50;11.90;;;13.70;34.50;;;;;;4969110;28;20785;-57
2022/11/10 09:23:25;;;;;;;10.80;10.40;;;13.80;33.60;;;;;;4971380;28;20414;-57
2022/11/10 09:25:53;;;;;;;11.67;11.17;;;13.60;33.40;;;;;;4969123;28;20544;-58
2022/11/10 09:28:20;;;;;;;11.10;10.50;;;13.50;33.60;;;;;;4972084;28;20444;-58
2022/11/10 09:30:48;;;;;;;11.77;11.10;;;13.40;33.70;;;;;;4968464;28;20426;-58
2022/11/10 09:33:14;;;;;;;10.90;10.50;;;13.50;34.60;;;;;;4965811;28;20447;-59
2022/11/10 09:35:40;;;;;;;11.00;10.50;;;13.50;34.00;;;;;;4951984;29;20418;-59
2022/11/10 09:38:06;;;;;;;11.07;10.10;;;13.50;34.80;;;;;;4952374;29;20419;-59
2022/11/10 09:40:56;;;;;;;11.13;10.60;;;13.50;32.50;;;;;;4950001;29;20415;-59
2022/11/10 09:43:55;;;;;;;10.33;9.73;;;13.50;31.60;;;;;;4952161;29;20599;-58
2022/11/10 09:46:35;;;;;;;10.77;10.30;;;13.50;32.60;;;;;;4951905;28;20415;-58
2022/11/10 09:49:17;;;;;;;10.53;10.03;;;13.60;32.70;;;;;;4952104;29;20423;-54
2022/11/10 09:51:43;;;;;;;10.37;9.67;;;13.70;33.20;;;;;;4951148;29;20477;-52
2022/11/10 09:54:43;;;;;;;9.77;9.37;;;13.60;31.80;;;;;;4952209;29;20947;-52
2022/11/10 09:57:17;;;;;;;10.10;9.50;;;13.70;32.60;;;;;;4951667;28;20419;-53
2022/11/10 09:59:43;;;;;;;10.50;9.97;;;13.80;31.90;;;;;;4953498;29;20466;-50
2022/11/10 10:02:28;;;;;;;10.53;9.93;;;13.80;31.40;;;;;;4951803;29;20451;-58
2022/11/10 10:05:10;;;;;;;10.57;10.07;;;13.80;32.00;;;;;;4953476;29;20497;-58
2022/11/10 10:07:59;;;;;;;11.17;10.30;;;13.80;31.10;;;;;;4953426;28;20418;-59
2022/11/10 10:10:36;;;;;;;12.20;11.10;;;13.90;32.50;;;;;;4952366;28;20415;-59
2022/11/10 10:13:32;;;;;;;9.97;9.17;;;14.00;32.80;;;;;;4955021;28;20431;-58
2022/11/10 10:16:06;;;;;;;10.10;9.70;;;14.00;31.30;;;;;;4954753;29;20411;-58
2022/11/10 10:18:49;;;;;;;10.87;10.40;;;14.00;31.40;;;;;;4954851;29;20454;-57
2022/11/10 10:21:30;;;;;;;10.07;9.63;;;14.20;33.10;;;;;;4954476;29;20415;-53
2022/11/10 10:23:58;;;;;;;9.93;9.33;;;14.10;30.90;;;;;;4955017;28;20430;-50
2022/11/10 10:26:32;;;;;;;10.37;9.97;;;14.10;30.30;;;;;;4954689;29;20419;-57
2022/11/10 10:29:06;;;;;;;9.53;9.13;;;14.20;30.20;;;;;;4954633;29;20422;-58
2022/11/10 10:31:46;;;;;;;9.50;9.10;;;14.20;30.80;;;;;;4953846;29;20462;-58
2022/11/10 10:34:18;;;;;;;8.53;8.33;;;14.30;30.00;;;;;;4953053;29;20418;-58
2022/11/10 10:36:44;;;;;;;9.53;9.00;;;14.30;30.10;;;;;;4953614;29;20427;-58
2022/11/10 10:39:36;;;;;;;8.90;8.40;;;14.30;29.70;;;;;;4953585;29;20757;-58
2022/11/10 10:42:14;;;;;;;9.83;9.40;;;14.30;29.70;;;;;;4953937;29;20884;-57
2022/11/10 10:44:40;;;;;;;9.47;8.77;;;14.30;29.60;;;;;;4954267;29;20860;-58
2022/11/10 10:47:06;;;;;;;9.73;9.27;;;14.30;29.50;;;;;;4953365;29;20454;-58
2022/11/10 10:49:35;;;;;;;9.67;9.37;;;14.30;29.30;;;;;;4952608;29;20198;-58
2022/11/10 10:52:11;;;;;;;9.40;9.03;;;14.40;29.00;;;;;;4953503;29;20207;-58
2022/11/10 10:54:38;;;;;;;9.10;8.67;;;14.40;29.00;;;;;;4953196;29;20509;-58
2022/11/10 10:57:28;;;;;;;9.83;9.37;;;14.50;29.30;;;;;;4954280;29;20427;-57
2022/11/10 11:00:21;;;;;;;11.13;8.90;;;14.50;28.00;;;;;;4951803;29;20443;-57
2022/11/10 11:03:03;;;;;;;9.90;9.60;;;14.50;27.70;;;;;;4953051;29;20457;-57
2022/11/10 11:05:29;;;;;;;9.63;9.00;;;14.60;27.30;;;;;;4950730;29;20415;-55
2022/11/10 11:07:56;;;;;;;9.70;9.30;;;14.60;27.30;;;;;;4950976;29;20497;-58
2022/11/10 11:10:23;;;;;;;9.67;9.27;;;14.60;27.10;;;;;;4951792;29;20183;-58
2022/11/10 11:12:49;;;;;;;9.37;9.07;;;14.60;27.00;;;;;;4953702;28;20541;-58
2022/11/10 11:15:28;;;;;;;11.30;9.03;;;14.60;28.00;;;;;;4952423;29;20423;-58
2022/11/10 11:18:01;;;;;;;9.60;9.20;;;14.60;27.70;;;;;;4952857;29;20230;-57
2022/11/10 11:20:46;;;;;;;9.40;9.10;;;14.70;26.50;;;;;;4950532;28;20423;-58
2022/11/10 11:23:33;;;;;;;9.83;9.33;;;14.60;26.30;;;;;;4952086;28;20998;-57
2022/11/10 11:26:22;;;;;;;8.77;8.57;;;14.60;26.30;;;;;;4953020;28;20418;-57
2022/11/10 11:28:57;;;;;;;9.17;8.87;;;14.60;26.30;;;;;;4952137;29;20890;-57
2022/11/10 11:31:41;;;;;;;8.70;8.50;;;14.70;27.40;;;;;;4951273;28;20520;-57
2022/11/10 11:34:20;;;;;;;9.40;9.10;;;14.70;28.30;;;;;;4953531;28;20419;-58
2022/11/10 11:37:27;;;;;;;9.47;9.17;;;14.70;27.00;;;;;;4951933;29;20415;-58
2022/11/10 11:40:14;;;;;;;9.53;9.03;;;14.70;26.90;;;;;;4944523;29;20426;-58
2022/11/10 11:42:48;;;;;;;8.67;8.30;;;14.80;27.10;;;;;;4950561;29;20434;-58
2022/11/10 11:45:38;;;;;;;9.00;8.60;;;14.70;26.40;;;;;;4953262;28;20418;-58
2022/11/10 11:48:33;;;;;;;9.73;9.37;;;14.80;26.90;;;;;;4951038;28;20473;-57
2022/11/10 11:51:16;;;;;;;9.17;8.70;;;14.80;26.40;;;;;;4951316;28;20462;-58
2022/11/10 11:54:06;;;;;;;8.97;8.67;;;14.80;26.40;;;;;;4952389;28;20414;-57
2022/11/10 11:56:43;;;;;;;9.80;9.33;;;14.90;26.50;;;;;;4951290;28;20411;-57
2022/11/10 11:59:27;;;;;;;9.53;9.13;;;15.00;26.60;;;;;;4951585;29;20754;-58
2022/11/10 12:02:30;;;;;;;9.23;8.83;;;15.00;26.60;;;;;;4951530;29;20429;-57
2022/11/10 12:05:21;;;;;;;8.67;7.97;;;15.10;26.20;;;;;;4949434;28;20410;-57
2022/11/10 12:08:15;;;;;;;8.67;8.37;;;15.10;25.50;;;;;;4950716;28;20419;-58
2022/11/10 12:10:54;;;;;;;9.00;8.70;;;15.10;25.60;;;;;;4950278;29;20510;-56
2022/11/10 12:13:20;;;;;;;8.30;8.00;;;15.00;24.50;;;;;;4950436;28;20418;-58
2022/11/10 12:16:14;;;;;;;8.80;8.30;;;15.00;24.10;;;;;;4949330;28;21047;-58
2022/11/10 12:18:50;;;;;;;8.10;7.80;;;15.00;24.10;;;;;;4950915;28;20314;-58
2022/11/10 12:21:34;;;;;;;8.20;7.80;;;15.00;24.90;;;;;;4949927;29;20425;-58
2022/11/10 12:24:27;;;;;;;8.57;7.80;;;15.00;24.70;;;;;;4957292;28;20435;-58
2022/11/10 12:26:58;;;;;;;8.00;7.70;;;15.00;25.20;;;;;;4952160;29;20423;-54
2022/11/10 12:29:34;;;;;;;8.73;8.37;;;15.10;25.90;;;;;;4949759;29;20430;-51
2022/11/10 12:32:48;;;;;;;10.50;9.30;;;15.10;25.50;;;;;;4949295;28;20820;-54
2022/11/10 12:35:14;;;;;;;8.63;8.23;;;15.10;23.80;;;;;;4945190;29;20418;-52
2022/11/10 12:37:59;;;;;;;8.50;8.23;;;15.10;24.00;;;;;;4955406;29;20449;-51
2022/11/10 12:40:32;;;;;;;8.60;8.40;;;15.20;23.90;;;;;;4953048;29;20176;-52
2022/11/10 12:43:00;;;;;;;8.10;7.90;;;15.20;24.20;;;;;;4955548;29;20490;-53
2022/11/10 12:45:41;;;;;;;8.30;8.10;;;15.20;24.10;;;;;;4963228;28;20429;-49
2022/11/10 12:48:10;;;;;;;8.30;8.10;;;15.20;24.10;;;;;;4965053;28;20434;-51
2022/11/10 12:50:57;;;;;;;9.13;8.73;;;15.20;23.40;;;;;;4966439;28;20417;-53
2022/11/10 12:53:26;;;;;;;8.67;8.17;;;15.20;23.50;;;;;;4974663;28;20424;-53
2022/11/10 12:56:24;;;;;;;8.00;7.73;;;15.30;24.90;;;;;;4974283;28;20420;-52
2022/11/10 12:59:19;;;;;;;8.40;8.20;;;15.30;23.20;;;;;;4965133;28;20449;-50
2022/11/10 13:01:48;;;;;;;7.77;7.57;;;15.30;24.10;;;;;;4973364;28;20774;-51
2022/11/10 13:04:16;;;;;;;8.10;7.80;;;15.30;23.60;;;;;;4975205;28;20918;-51
2022/11/10 13:06:49;;;;;;;8.80;8.40;;;15.30;24.70;;;;;;4975049;28;20422;-53
2022/11/10 13:09:34;;;;;;;9.77;9.37;;;15.30;25.80;;;;;;4975191;28;20418;-54